Time;durP1;ratioP1;P1;durP2;ratioP2;P2;SDS_P1;SDS_P2;PMS_P1;PMS_P2;Temp;Humidity;BMP_temperature;BMP_pressure;BME280_temperature;BME280_humidity;BME280_pressure;Samples;Min_cycle;Max_cycle;Signal;HPM_P1;HPM_P2
2022/09/15 00:00:59;;;;;;;16.60;8.70;;;;;;;12.73;78.65;97902.50;6156485;23;20029;-68
2022/09/15 00:03:27;;;;;;;17.15;9.02;;;;;;;12.70;78.81;97896.91;6156275;23;20021;-68
2022/09/15 00:05:54;;;;;;;16.73;8.15;;;;;;;12.68;78.79;97900.06;6156371;23;20052;-68
2022/09/15 00:08:22;;;;;;;14.95;8.32;;;;;;;12.72;78.66;97898.13;6156649;23;20053;-68
2022/09/15 00:10:52;;;;;;;18.38;8.98;;;;;;;12.78;78.62;97895.78;6156775;23;20197;-68
2022/09/15 00:13:20;;;;;;;16.27;8.98;;;;;;;12.78;78.69;97893.78;6156560;23;20092;-67
2022/09/15 00:15:47;;;;;;;20.88;9.38;;;;;;;12.78;78.70;97885.44;6156186;23;20468;-67
2022/09/15 00:18:14;;;;;;;18.13;9.95;;;;;;;12.81;78.60;97889.41;6155953;23;20120;-67
2022/09/15 00:20:43;;;;;;;24.70;10.38;;;;;;;12.81;78.77;97890.22;6156343;23;20484;-72
2022/09/15 00:23:12;;;;;;;24.55;13.18;;;;;;;12.84;78.54;97894.22;6156036;23;20029;-73
2022/09/15 00:25:50;;;;;;;20.45;10.82;;;;;;;12.88;78.52;97879.09;6129796;23;20112;-73
2022/09/15 00:28:20;;;;;;;23.48;10.07;;;;;;;12.89;78.55;97882.72;6156080;23;20056;-72
2022/09/15 00:30:48;;;;;;;;;;;;;;;12.81;78.77;97889.41;6156737;23;20361;-72
2022/09/15 00:33:16;;;;;;;17.02;8.38;;;;;;;12.81;78.80;97887.44;6156006;23;19967;-72
2022/09/15 00:35:45;;;;;;;19.05;9.75;;;;;;;12.82;78.63;97879.84;6155637;23;20079;-72
2022/09/15 00:38:14;;;;;;;21.55;9.65;;;;;;;12.80;78.72;97877.44;6155746;23;20107;-72
2022/09/15 00:41:00;;;;;;;25.88;10.98;;;;;;;12.75;78.78;97883.41;6156127;23;20057;-73
2022/09/15 00:43:47;;;;;;;19.60;11.18;;;;;;;12.70;78.93;97878.19;6155835;23;20021;-73
2022/09/15 00:46:16;;;;;;;23.77;11.30;;;;;;;12.73;79.30;97882.16;6156044;23;20391;-73
2022/09/15 00:48:49;;;;;;;25.45;12.80;;;;;;;12.70;79.28;97883.75;6155652;23;20026;-73
2022/09/15 00:51:21;;;;;;;20.48;10.52;;;;;;;12.73;79.28;97888.56;6155746;23;20056;-73
2022/09/15 00:53:49;;;;;;;23.38;10.95;;;;;;;12.74;79.26;97887.38;6155452;23;20076;-73
2022/09/15 00:56:18;;;;;;;25.33;11.75;;;;;;;12.74;79.09;97875.41;6155440;23;20022;-73
2022/09/15 00:58:54;;;;;;;20.98;10.75;;;;;;;12.78;79.15;97874.25;6155392;23;20033;-72
2022/09/15 01:01:25;;;;;;;26.02;11.43;;;;;;;12.79;79.06;97878.66;6156316;23;20025;-73
2022/09/15 01:03:53;;;;;;;23.98;11.73;;;;;;;12.80;78.89;97879.44;6129278;23;20103;-72
2022/09/15 01:06:29;;;;;;;20.77;11.05;;;;;;;12.84;79.13;97878.28;6156277;23;20026;-73
2022/09/15 01:09:18;;;;;;;26.33;12.45;;;;;;;12.85;79.01;97881.88;6155792;23;20028;-73
2022/09/15 01:11:45;;;;;;;20.52;11.05;;;;;;;12.81;79.31;97884.66;6129346;23;20034;-74
2022/09/15 01:14:11;;;;;;;26.13;10.93;;;;;;;12.83;79.15;97887.88;6155906;23;20518;-72
2022/09/15 01:16:52;;;;;;;18.95;10.45;;;;;;;12.86;79.15;97881.50;6155904;23;20026;-72
2022/09/15 01:19:36;;;;;;;6.82;4.35;;;;;;;12.78;78.92;97891.00;6155982;23;20064;-73
2022/09/15 01:22:40;;;;;;;4.63;2.72;;;;;;;12.61;79.08;97883.28;6155550;23;20029;-73
2022/09/15 01:25:07;;;;;;;3.22;1.70;;;;;;;12.46;78.90;97875.97;6155729;23;20397;-73
2022/09/15 01:27:55;;;;;;;3.47;1.85;;;;;;;12.41;79.05;97875.56;6155609;23;20021;-65
2022/09/15 01:30:23;;;;;;;2.92;1.17;;;;;;;12.33;78.89;97879.44;6155606;23;20349;-68
2022/09/15 01:33:08;;;;;;;3.63;1.00;;;;;;;12.28;78.60;97877.81;6155845;23;20088;-69
2022/09/15 01:35:51;;;;;;;2.55;1.33;;;;;;;12.22;78.52;97879.34;6155934;23;20021;-69
2022/09/15 01:38:35;;;;;;;2.58;1.20;;;;;;;12.12;78.37;97880.06;6155546;23;20030;-68
2022/09/15 01:41:08;;;;;;;2.72;1.02;;;;;;;11.98;78.42;97879.09;6155479;23;20524;-68
2022/09/15 01:43:42;;;;;;;2.03;1.05;;;;;;;11.94;78.30;97878.25;6155304;23;20025;-68
2022/09/15 01:46:11;;;;;;;3.40;1.00;;;;;;;11.88;78.60;97877.00;6155255;23;20097;-68
2022/09/15 01:48:40;;;;;;;2.53;0.95;;;;;;;11.86;78.58;97871.00;6155505;23;20113;-68
2022/09/15 01:51:08;;;;;;;1.70;0.98;;;;;;;11.87;78.75;97876.19;6155526;23;20055;-66
2022/09/15 01:53:35;;;;;;;2.65;0.93;;;;;;;11.86;78.72;97880.16;6155218;23;20513;-66
2022/09/15 01:56:07;;;;;;;1.35;0.90;;;;;;;11.83;78.58;97882.91;6155342;23;20058;-66
2022/09/15 01:58:35;;;;;;;2.28;0.90;;;;;;;11.77;78.70;97874.09;6154835;23;20033;-66
2022/09/15 02:01:12;;;;;;;1.15;0.77;;;;;;;11.74;78.56;97877.66;6155348;23;20032;-66
2022/09/15 02:03:49;;;;;;;1.38;0.90;;;;;;;11.71;78.60;97885.94;6154681;23;20037;-66
2022/09/15 02:06:52;;;;;;;2.75;0.95;;;;;;;11.68;78.46;97879.16;6155325;23;20052;-67
2022/09/15 02:09:23;;;;;;;1.42;0.77;;;;;;;11.66;78.93;97878.72;6155582;23;20025;-66
2022/09/15 02:12:16;;;;;;;2.15;1.10;;;;;;;11.64;78.59;97883.91;6155289;23;20048;-66
2022/09/15 02:14:54;;;;;;;2.08;1.00;;;;;;;11.62;78.80;97877.91;6155215;23;20366;-66
2022/09/15 02:17:23;;;;;;;2.15;1.00;;;;;;;11.64;78.68;97881.13;6154918;23;20338;-66
2022/09/15 02:20:01;;;;;;;1.30;1.00;;;;;;;11.67;78.69;97880.34;6154804;23;20072;-66
2022/09/15 02:22:34;;;;;;;2.17;0.90;;;;;;;11.69;78.66;97877.97;6155025;23;20589;-66
2022/09/15 02:25:07;;;;;;;1.63;0.90;;;;;;;11.68;78.54;97875.56;6155381;23;20025;-65
2022/09/15 02:27:39;;;;;;;1.80;0.90;;;;;;;11.65;78.58;97877.16;6154974;23;20409;-65
2022/09/15 02:30:10;;;;;;;1.88;0.90;;;;;;;11.62;78.90;97875.13;6154806;23;20032;-65
2022/09/15 02:32:53;;;;;;;2.17;1.15;;;;;;;11.64;78.56;97881.13;6129442;23;20037;-65
2022/09/15 02:35:23;;;;;;;1.70;1.00;;;;;;;11.64;78.74;97880.31;6154997;23;20029;-65
2022/09/15 02:37:51;;;;;;;1.55;0.80;;;;;;;11.66;78.60;97875.94;6155018;23;20025;-65
2022/09/15 02:40:18;;;;;;;2.80;1.10;;;;;;;11.72;78.80;97874.44;6155136;23;20025;-66
2022/09/15 02:42:54;;;;;;;1.70;0.90;;;;;;;11.74;78.76;97880.44;6129101;23;20080;-66
2022/09/15 02:45:25;;;;;;;2.42;0.98;;;;;;;11.71;78.50;97881.19;6154949;23;20369;-66
2022/09/15 02:47:52;;;;;;;1.45;0.90;;;;;;;11.72;78.55;97880.00;6154919;23;20025;-66
2022/09/15 02:50:19;;;;;;;1.52;0.80;;;;;;;11.72;78.47;97882.78;6155303;23;20025;-66
2022/09/15 02:52:46;;;;;;;2.33;0.80;;;;;;;11.74;78.74;97886.00;6154991;23;20103;-66
2022/09/15 02:55:15;;;;;;;1.38;0.93;;;;;;;11.78;78.84;97886.84;6154916;23;20377;-67
2022/09/15 02:57:42;;;;;;;1.45;0.93;;;;;;;11.81;78.51;97879.72;6154587;23;20033;-66
2022/09/15 03:00:12;;;;;;;2.15;1.20;;;;;;;11.81;78.77;97879.72;6154949;23;20072;-67
2022/09/15 03:02:41;;;;;;;4.25;1.40;;;;;;;11.80;78.67;97883.66;6129786;23;20025;-65
2022/09/15 03:05:08;;;;;;;4.65;2.30;;;;;;;11.76;78.52;97889.22;6154547;23;20476;-65
2022/09/15 03:07:36;;;;;;;5.70;2.75;;;;;;;11.76;78.61;97883.66;6154836;23;20032;-65
2022/09/15 03:10:05;;;;;;;3.05;1.85;;;;;;;11.76;78.82;97888.41;6154791;23;20026;-66
2022/09/15 03:12:40;;;;;;;3.63;1.38;;;;;;;11.78;78.57;97886.06;6155106;23;20482;-73
2022/09/15 03:15:09;;;;;;;3.25;1.52;;;;;;;11.81;78.66;97880.50;6156550;23;20083;-73
2022/09/15 03:17:38;;;;;;;3.57;1.60;;;;;;;11.81;78.32;97888.84;6156933;23;20022;-72
2022/09/15 03:20:06;;;;;;;3.47;1.55;;;;;;;11.76;78.59;97885.63;6156691;23;20083;-72
2022/09/15 03:22:34;;;;;;;2.78;1.85;;;;;;;11.76;78.61;97893.97;6156969;23;20449;-73
2022/09/15 03:25:04;;;;;;;3.90;1.60;;;;;;;11.75;78.61;97893.16;6130258;23;20060;-73
2022/09/15 03:27:32;;;;;;;2.45;1.30;;;;;;;11.71;78.47;97889.53;6156578;23;20067;-72
2022/09/15 03:29:59;;;;;;;2.22;1.48;;;;;;;11.71;78.65;97891.53;6156756;23;20083;-72
2022/09/15 03:32:26;;;;;;;2.00;1.15;;;;;;;11.70;78.52;97890.75;6156267;23;20049;-72
2022/09/15 03:34:53;;;;;;;1.35;1.00;;;;;;;11.69;78.77;97888.34;6156337;23;20028;-73
2022/09/15 03:37:24;;;;;;;1.92;1.20;;;;;;;11.67;78.58;97883.16;6156807;23;20021;-72
2022/09/15 03:39:51;;;;;;;1.95;1.05;;;;;;;11.63;78.53;97890.63;6156590;23;20052;-72
2022/09/15 03:42:19;;;;;;;2.05;1.10;;;;;;;11.65;78.75;97884.69;6156689;23;20021;-72
2022/09/15 03:44:46;;;;;;;8.35;1.00;;;;;;;11.65;78.64;97887.47;6156459;23;20071;-73
2022/09/15 03:47:13;;;;;;;1.33;0.77;;;;;;;11.66;78.61;97889.88;6156775;23;20025;-73
2022/09/15 03:49:40;;;;;;;2.00;1.05;;;;;;;11.64;78.78;97886.69;6156283;23;20033;-73
2022/09/15 03:52:07;;;;;;;1.52;0.80;;;;;;;11.63;78.80;97885.06;6156643;23;20026;-73
2022/09/15 03:54:34;;;;;;;2.13;1.10;;;;;;;11.64;78.89;97875.56;6156190;23;20021;-73
2022/09/15 03:57:02;;;;;;;3.28;0.93;;;;;;;11.67;78.92;97880.34;6156114;23;20025;-73
2022/09/15 03:59:29;;;;;;;0.68;0.50;;;;;;;11.68;78.60;97876.38;6129827;23;20465;-73
2022/09/15 04:01:55;;;;;;;1.85;0.70;;;;;;;11.70;78.70;97878.78;6156299;23;20048;-73
2022/09/15 04:04:23;;;;;;;1.40;0.95;;;;;;;11.71;78.38;97874.81;6155979;23;20365;-73
2022/09/15 04:06:50;;;;;;;1.40;0.70;;;;;;;11.66;78.63;97878.72;6130700;23;20053;-73
2022/09/15 04:09:16;;;;;;;1.23;0.77;;;;;;;11.64;78.54;97891.44;6156491;23;20449;-73
2022/09/15 04:11:46;;;;;;;1.55;0.82;;;;;;;11.67;78.52;97887.91;6155922;23;20030;-73
2022/09/15 04:14:13;;;;;;;2.10;0.70;;;;;;;11.68;78.50;97893.09;6130085;23;20025;-72
2022/09/15 04:16:40;;;;;;;1.02;0.60;;;;;;;11.67;78.40;97890.69;6156313;23;20030;-72
2022/09/15 04:19:07;;;;;;;1.73;0.77;;;;;;;11.60;78.32;97874.66;6156444;23;20029;-72
2022/09/15 04:21:34;;;;;;;2.13;0.93;;;;;;;11.69;78.48;97900.25;6155566;23;20060;-72
2022/09/15 04:24:03;;;;;;;1.52;0.95;;;;;;;11.74;78.32;97893.53;6156030;23;20404;-72
2022/09/15 04:26:35;;;;;;;0.60;0.50;;;;;;;11.72;78.31;97893.94;6155565;23;20405;-72
2022/09/15 04:29:04;;;;;;;3.28;0.77;;;;;;;11.72;78.34;97891.13;6155611;23;20033;-72
2022/09/15 04:31:32;;;;;;;1.30;0.80;;;;;;;11.70;78.26;97885.16;6156021;23;20056;-71
2022/09/15 04:33:59;;;;;;;2.05;0.82;;;;;;;11.70;78.13;97890.75;6156114;23;20076;-72
2022/09/15 04:36:28;;;;;;;1.33;0.73;;;;;;;11.70;78.41;97885.16;6155796;23;20056;-72
2022/09/15 04:38:55;;;;;;;1.10;0.70;;;;;;;11.73;77.97;97889.97;6155664;23;20026;-74
2022/09/15 04:41:23;;;;;;;0.70;0.60;;;;;;;11.78;78.04;97897.97;6155958;23;20429;-72
2022/09/15 04:43:50;;;;;;;3.78;0.70;;;;;;;11.79;78.17;97899.59;6156094;23;20029;-74
2022/09/15 04:46:17;;;;;;;2.20;0.80;;;;;;;11.79;78.01;97902.38;6155964;23;20025;-76
2022/09/15 04:48:47;;;;;;;0.77;0.50;;;;;;;11.81;77.89;97893.66;6155822;23;20025;-74
2022/09/15 04:51:18;;;;;;;1.40;0.60;;;;;;;11.79;77.96;97890.44;6155746;23;20030;-75
2022/09/15 04:53:47;;;;;;;1.30;0.80;;;;;;;11.81;77.85;97891.66;6155780;23;20028;-74
2022/09/15 04:56:20;;;;;;;2.20;0.90;;;;;;;11.84;77.73;97892.88;6155947;23;20419;-74
2022/09/15 04:58:49;;;;;;;4.97;1.20;;;;;;;11.80;77.74;97892.84;6155336;23;20719;-73
2022/09/15 05:01:28;;;;;;;2.67;1.20;;;;;;;11.77;77.78;97896.38;6155504;23;20072;-73
2022/09/15 05:03:55;;;;;;;1.77;1.23;;;;;;;11.76;77.83;97893.97;6155081;23;20025;-73
2022/09/15 05:06:26;;;;;;;1.98;0.90;;;;;;;11.78;77.67;97899.97;6155151;23;20053;-72
2022/09/15 05:08:56;;;;;;;1.42;0.80;;;;;;;11.79;77.75;97896.00;6155270;23;20029;-73
2022/09/15 05:11:24;;;;;;;2.25;0.90;;;;;;;11.72;77.90;97893.16;6155638;23;20033;-72
2022/09/15 05:13:51;;;;;;;1.58;1.00;;;;;;;11.67;77.82;97899.84;6155733;23;20021;-72
2022/09/15 05:16:21;;;;;;;1.55;0.90;;;;;;;11.68;77.98;97895.88;6155745;23;20124;-72
2022/09/15 05:18:50;;;;;;;1.55;0.75;;;;;;;11.72;77.88;97895.94;6155504;23;20021;-73
2022/09/15 05:21:18;;;;;;;4.72;0.70;;;;;;;11.74;77.74;97907.47;6155670;23;20392;-72
2022/09/15 05:23:46;;;;;;;0.82;0.70;;;;;;;11.73;77.75;97901.13;6155297;23;20030;-73
2022/09/15 05:26:16;;;;;;;2.55;0.82;;;;;;;11.68;77.86;97895.88;6155253;23;20049;-71
2022/09/15 05:28:43;;;;;;;0.52;0.50;;;;;;;11.64;77.91;97889.47;6155471;23;20457;-72
2022/09/15 05:31:13;;;;;;;1.20;0.80;;;;;;;11.67;77.74;97885.94;6155229;23;20084;-73
2022/09/15 05:33:39;;;;;;;1.48;0.90;;;;;;;11.72;77.70;97898.72;6129122;23;20052;-73
2022/09/15 05:36:07;;;;;;;1.75;0.70;;;;;;;11.76;77.62;97897.56;6155487;23;20022;-73
2022/09/15 05:38:34;;;;;;;1.08;0.70;;;;;;;11.77;77.52;97888.03;6155126;23;20409;-73
2022/09/15 05:41:06;;;;;;;1.55;0.90;;;;;;;11.77;77.67;97896.38;6153998;23;20029;-74
2022/09/15 05:43:35;;;;;;;1.23;0.60;;;;;;;11.77;77.59;97896.38;6155005;23;20080;-75
2022/09/15 05:46:02;;;;;;;2.08;1.02;;;;;;;11.79;77.48;97899.59;6155572;23;20022;-74
2022/09/15 05:48:30;;;;;;;2.45;0.75;;;;;;;11.77;77.44;97896.38;6154458;23;20076;-74
2022/09/15 05:50:57;;;;;;;2.78;1.10;;;;;;;11.76;77.42;97900.38;6155086;23;20026;-74
2022/09/15 05:53:25;;;;;;;1.33;0.88;;;;;;;11.76;77.50;97900.38;6154938;23;20025;-74
2022/09/15 05:55:56;;;;;;;1.65;0.85;;;;;;;11.83;77.35;97900.44;6156063;23;20026;-74
2022/09/15 05:58:24;;;;;;;3.55;1.35;;;;;;;11.82;77.35;97904.41;6153953;23;20033;-74
2022/09/15 06:00:52;;;;;;;3.75;1.20;;;;;;;11.80;77.40;97901.19;6154856;23;20454;-73
2022/09/15 06:03:20;;;;;;;1.92;1.00;;;;;;;11.74;77.47;97911.06;6154592;23;20453;-74
2022/09/15 06:05:47;;;;;;;1.73;0.65;;;;;;;11.71;77.55;97909.03;6154736;23;20080;-74
2022/09/15 06:08:14;;;;;;;2.28;0.77;;;;;;;11.71;77.53;97914.63;6153821;23;20022;-73
2022/09/15 06:10:41;;;;;;;1.48;0.80;;;;;;;11.72;77.63;97910.63;6154373;23;20033;-73
2022/09/15 06:13:08;;;;;;;1.50;0.75;;;;;;;11.72;77.50;97910.63;6154595;23;20461;-73
2022/09/15 06:15:35;;;;;;;1.98;0.77;;;;;;;11.72;77.65;97919.00;6154741;23;20057;-74
2022/09/15 06:18:01;;;;;;;1.50;0.75;;;;;;;11.74;77.58;97913.84;6153818;23;20026;-74
2022/09/15 06:20:28;;;;;;;0.95;0.60;;;;;;;11.74;77.68;97913.03;6154615;23;20076;-74
2022/09/15 06:22:55;;;;;;;1.98;0.80;;;;;;;11.74;77.59;97913.84;6154226;23;20022;-74
2022/09/15 06:25:22;;;;;;;1.92;0.77;;;;;;;11.78;77.61;97911.91;6155034;23;20021;-74
2022/09/15 06:27:49;;;;;;;2.08;1.02;;;;;;;11.79;77.52;97919.09;6155088;23;20025;-75
2022/09/15 06:30:16;;;;;;;1.42;0.70;;;;;;;11.80;77.63;97923.47;6154198;23;20053;-75
2022/09/15 06:32:44;;;;;;;3.88;0.95;;;;;;;11.82;77.74;97918.34;6154925;23;20457;-75
2022/09/15 06:35:14;;;;;;;3.33;0.88;;;;;;;11.81;77.74;97919.50;6155037;23;20033;-74
2022/09/15 06:37:41;;;;;;;0.82;0.70;;;;;;;11.85;77.67;97919.56;6154487;23;20048;-74
2022/09/15 06:40:08;;;;;;;2.22;0.80;;;;;;;11.88;77.74;97927.97;6154833;23;20418;-74
2022/09/15 06:42:36;;;;;;;1.33;0.93;;;;;;;11.92;77.38;97930.78;6154901;23;20029;-73
2022/09/15 06:45:03;;;;;;;0.98;0.77;;;;;;;11.95;77.45;97930.81;6154628;23;20029;-73
2022/09/15 06:47:32;;;;;;;2.35;0.90;;;;;;;12.01;77.22;97934.06;6155189;23;20022;-74
2022/09/15 06:50:00;;;;;;;1.35;0.88;;;;;;;11.98;77.22;97937.63;6156321;23;20032;-75
2022/09/15 06:52:27;;;;;;;2.95;0.80;;;;;;;11.97;77.32;97934.03;6155911;23;20052;-73
2022/09/15 06:54:53;;;;;;;3.50;0.80;;;;;;;12.00;77.19;97936.06;6155972;23;20025;-66
2022/09/15 06:57:20;;;;;;;1.40;0.70;;;;;;;12.03;77.06;97932.53;6155633;23;20021;-66
2022/09/15 06:59:47;;;;;;;2.40;0.90;;;;;;;12.02;77.24;97936.47;6156110;23;20120;-67
2022/09/15 07:02:16;;;;;;;1.63;0.85;;;;;;;12.07;77.20;97929.75;6156241;23;20095;-66
2022/09/15 07:04:44;;;;;;;1.08;0.70;;;;;;;12.11;77.18;97931.41;6156805;23;20025;-66
2022/09/15 07:07:10;;;;;;;2.15;0.70;;;;;;;12.18;76.99;97931.50;6156419;23;20026;-66
2022/09/15 07:09:37;;;;;;;1.23;0.70;;;;;;;12.24;76.91;97949.47;6156894;23;20029;-67
2022/09/15 07:12:07;;;;;;;1.23;0.80;;;;;;;12.26;76.78;97938.72;6156185;23;20116;-68
2022/09/15 07:14:34;;;;;;;1.02;0.60;;;;;;;12.24;76.64;97941.13;6156405;23;20095;-67
2022/09/15 07:17:01;;;;;;;1.20;0.77;;;;;;;12.22;76.80;97940.69;6155533;23;20080;-67
2022/09/15 07:19:28;;;;;;;1.92;0.93;;;;;;;12.23;76.56;97942.28;6156366;23;20422;-67
2022/09/15 07:21:55;;;;;;;3.88;1.25;;;;;;;12.25;76.79;97944.69;6156163;23;20032;-67
2022/09/15 07:24:22;;;;;;;4.13;0.98;;;;;;;12.29;76.53;97937.97;6129965;23;20033;-67
2022/09/15 07:26:48;;;;;;;5.28;2.03;;;;;;;12.36;76.34;97946.41;6155922;23;20436;-68
2022/09/15 07:29:15;;;;;;;1.95;0.80;;;;;;;12.39;76.39;97950.41;6155962;23;20080;-67
2022/09/15 07:31:42;;;;;;;1.50;0.80;;;;;;;12.35;76.42;97944.78;6155565;23;20516;-67
2022/09/15 07:34:09;;;;;;;1.95;0.90;;;;;;;12.33;76.59;97947.19;6156220;23;20084;-67
2022/09/15 07:36:36;;;;;;;1.23;0.73;;;;;;;12.30;76.41;97944.34;6155168;23;20026;-67
2022/09/15 07:39:04;;;;;;;7.60;3.25;;;;;;;12.33;76.21;97946.38;6155762;23;20026;-69
2022/09/15 07:41:31;;;;;;;12.43;6.20;;;;;;;12.38;76.40;97949.59;6156441;23;20038;-69
2022/09/15 07:43:59;;;;;;;6.97;1.20;;;;;;;12.40;76.25;97952.00;6155809;23;20025;-69
2022/09/15 07:46:29;;;;;;;2.00;1.00;;;;;;;12.42;76.33;97949.66;6155953;23;20029;-69
2022/09/15 07:48:56;;;;;;;1.80;0.80;;;;;;;12.43;76.18;97949.25;6155666;23;20480;-69
2022/09/15 07:51:24;;;;;;;2.05;1.10;;;;;;;12.42;76.12;97949.66;6156067;23;20453;-69
2022/09/15 07:53:52;;;;;;;2.67;1.63;;;;;;;12.43;76.17;97952.06;6155919;23;20366;-69
2022/09/15 07:56:20;;;;;;;1.67;0.98;;;;;;;12.49;76.06;97958.88;6156363;23;20029;-69
2022/09/15 07:58:48;;;;;;;2.58;1.00;;;;;;;12.48;76.13;97962.06;6154696;23;20108;-69
2022/09/15 08:01:16;;;;;;;4.82;1.05;;;;;;;12.46;75.90;97962.44;6155496;23;20029;-69
2022/09/15 08:03:47;;;;;;;1.90;1.02;;;;;;;12.45;76.08;97957.25;6155081;23;20026;-69
2022/09/15 08:06:17;;;;;;;3.88;0.90;;;;;;;12.40;75.98;97958.41;6155836;23;20030;-69
2022/09/15 08:08:44;;;;;;;1.08;0.73;;;;;;;12.39;76.24;97956.81;6156060;23;20022;-69
2022/09/15 08:11:15;;;;;;;1.92;0.90;;;;;;;12.42;76.12;97958.00;6155775;23;20150;-69
2022/09/15 08:13:49;;;;;;;2.58;1.00;;;;;;;12.50;76.05;97957.69;6154909;23;20036;-68
2022/09/15 08:16:19;;;;;;;2.65;2.00;;;;;;;12.55;75.89;97962.94;6155062;23;20048;-68
2022/09/15 08:18:47;;;;;;;;;;;;;;;12.52;75.97;97969.28;6155382;23;20045;-68
2022/09/15 08:21:17;;;;;;;2.28;1.08;;;;;;;12.59;75.89;97965.75;6156150;23;19920;-68
2022/09/15 08:23:43;;;;;;;2.22;1.10;;;;;;;12.65;75.64;97962.22;6155581;23;20021;-68
2022/09/15 08:26:11;;;;;;;2.55;1.30;;;;;;;12.67;75.74;97968.22;6155985;23;20045;-68
2022/09/15 08:28:43;;;;;;;4.22;1.00;;;;;;;12.61;75.83;97966.97;6155764;23;20532;-68
2022/09/15 08:31:12;;;;;;;1.67;0.82;;;;;;;12.67;75.69;97959.84;6156234;23;20104;-68
2022/09/15 08:33:40;;;;;;;2.13;0.98;;;;;;;12.74;75.43;97956.34;6153991;23;20049;-69
2022/09/15 08:36:12;;;;;;;1.63;1.00;;;;;;;12.78;75.39;97963.56;6155795;23;20414;-69
2022/09/15 08:38:40;;;;;;;3.00;1.45;;;;;;;12.86;74.99;97962.44;6155098;23;20025;-69
2022/09/15 08:41:21;;;;;;;2.47;1.25;;;;;;;12.93;75.07;97965.28;6154819;23;20080;-69
2022/09/15 08:44:07;;;;;;;4.85;2.00;;;;;;;12.91;74.99;97962.06;6154799;23;20033;-68
2022/09/15 08:47:11;;;;;;;4.18;1.33;;;;;;;12.90;75.09;97971.63;6154972;23;20025;-69
2022/09/15 08:50:06;;;;;;;1.92;1.20;;;;;;;12.99;75.07;97968.50;6091510;23;20025;-69
2022/09/15 08:52:39;;;;;;;4.00;1.15;;;;;;;12.96;74.88;97972.06;6154931;23;20026;-69
2022/09/15 08:55:37;;;;;;;2.47;1.30;;;;;;;13.00;74.74;97969.34;6155426;23;20025;-70
2022/09/15 08:58:05;;;;;;;3.00;1.20;;;;;;;13.03;74.85;97971.38;6154926;23;20029;-69
2022/09/15 09:00:32;;;;;;;3.22;1.08;;;;;;;13.03;74.85;97963.81;6155059;23;20025;-69
2022/09/15 09:03:02;;;;;;;3.97;1.10;;;;;;;13.09;74.65;97972.59;6155558;23;20199;-69
2022/09/15 09:05:56;;;;;;;6.13;1.13;;;;;;;13.14;74.24;97975.03;6155731;23;20516;-69
2022/09/15 09:08:59;;;;;;;3.15;1.40;;;;;;;13.15;74.06;97982.22;6155293;23;20472;-71
2022/09/15 09:11:46;;;;;;;4.00;1.92;;;;;;;13.20;73.92;97979.09;6154492;23;20080;-69
2022/09/15 09:14:23;;;;;;;3.33;1.48;;;;;;;13.14;74.33;97980.63;6154767;23;20032;-69
2022/09/15 09:17:06;;;;;;;4.30;2.45;;;;;;;13.09;74.30;97986.56;6154704;23;20084;-69
2022/09/15 09:19:55;;;;;;;3.63;2.00;;;;;;;13.03;74.23;97986.13;6155274;23;20396;-69
2022/09/15 09:22:26;;;;;;;3.35;1.73;;;;;;;12.98;74.22;97985.63;6154999;23;20030;-68
2022/09/15 09:24:57;;;;;;;2.50;1.30;;;;;;;12.90;74.99;97988.38;6154986;23;20022;-69
2022/09/15 09:27:33;;;;;;;2.92;1.25;;;;;;;12.96;74.52;97985.25;6154780;23;20349;-68
2022/09/15 09:30:09;;;;;;;2.17;1.33;;;;;;;12.99;74.10;97990.06;6154526;23;20026;-70
2022/09/15 09:32:44;;;;;;;3.85;1.30;;;;;;;13.06;74.07;97979.78;6155635;23;20452;-70
2022/09/15 09:35:40;;;;;;;3.78;1.30;;;;;;;13.03;73.88;97985.31;6155273;23;20026;-70
2022/09/15 09:38:09;;;;;;;1.40;0.98;;;;;;;13.05;73.88;97994.13;6154137;23;20371;-69
2022/09/15 09:40:39;;;;;;;2.90;1.15;;;;;;;13.07;74.00;97994.50;6155033;23;20113;-69
2022/09/15 09:43:07;;;;;;;11.00;4.43;;;;;;;13.06;73.88;97993.72;6154351;23;20025;-69
2022/09/15 09:45:34;;;;;;;2.83;1.30;;;;;;;13.09;73.85;97989.34;6153928;23;20072;-68
2022/09/15 09:48:10;;;;;;;2.58;1.20;;;;;;;13.16;73.63;97995.78;6154173;23;20076;-69
2022/09/15 09:50:43;;;;;;;5.13;1.58;;;;;;;13.19;73.76;98000.59;6154192;23;20025;-69
2022/09/15 09:53:30;;;;;;;4.88;1.52;;;;;;;13.24;73.14;97996.66;6153310;23;20025;-69
2022/09/15 09:56:17;;;;;;;2.33;1.60;;;;;;;13.24;73.26;98003.06;6154285;23;20079;-69
2022/09/15 09:58:44;;;;;;;5.57;1.40;;;;;;;13.24;72.91;98007.81;6154368;23;20021;-68
2022/09/15 10:01:15;;;;;;;2.50;1.60;;;;;;;13.18;73.25;98004.59;6155836;23;20196;-69
2022/09/15 10:03:44;;;;;;;2.67;1.35;;;;;;;13.14;73.64;98005.75;6155060;23;20032;-69
2022/09/15 10:06:29;;;;;;;5.63;1.60;;;;;;;13.08;73.38;98005.28;6154974;23;20031;-67
2022/09/15 10:09:04;;;;;;;3.90;1.95;;;;;;;13.06;73.72;98001.28;6154422;23;20017;-72
2022/09/15 10:11:51;;;;;;;3.50;1.90;;;;;;;13.12;73.21;98006.16;6154838;23;20366;-73
2022/09/15 10:14:28;;;;;;;3.47;1.60;;;;;;;13.17;73.18;98008.56;6154707;23;20025;-74
2022/09/15 10:17:14;;;;;;;2.13;1.50;;;;;;;13.22;72.88;98007.41;6129605;23;20025;-73
2022/09/15 10:19:55;;;;;;;2.72;1.63;;;;;;;13.20;73.03;98012.59;6154977;23;20033;-72
2022/09/15 10:22:27;;;;;;;4.45;1.55;;;;;;;13.19;73.13;98017.38;6128447;23;20453;-72
2022/09/15 10:24:55;;;;;;;2.67;1.65;;;;;;;13.21;73.01;98011.38;6154308;23;20029;-73
2022/09/15 10:27:26;;;;;;;5.35;1.63;;;;;;;13.21;72.95;98014.19;6154045;23;20151;-74
2022/09/15 10:29:54;;;;;;;3.60;2.05;;;;;;;13.14;73.30;98011.34;6154860;23;20022;-73
2022/09/15 10:32:28;;;;;;;4.32;2.03;;;;;;;13.13;73.47;98012.50;6154799;23;20029;-73
2022/09/15 10:35:03;;;;;;;2.65;1.80;;;;;;;13.15;73.21;98018.53;6154463;23;20025;-73
2022/09/15 10:37:46;;;;;;;3.38;1.92;;;;;;;13.23;73.20;98023.00;6155193;23;20353;-73
2022/09/15 10:40:33;;;;;;;3.10;1.83;;;;;;;13.28;73.17;98015.03;6155950;23;20056;-73
2022/09/15 10:43:26;;;;;;;3.60;1.90;;;;;;;13.43;72.29;98015.94;6154594;23;20029;-72
2022/09/15 10:46:02;;;;;;;6.68;2.08;;;;;;;13.48;72.61;98015.59;6154233;23;20036;-73
2022/09/15 10:48:39;;;;;;;3.72;1.75;;;;;;;13.55;72.28;98024.00;6154359;23;20024;-75
2022/09/15 10:51:14;;;;;;;3.33;1.90;;;;;;;13.48;72.43;98018.38;6154685;23;20025;-74
2022/09/15 10:53:57;;;;;;;5.28;3.05;;;;;;;13.41;72.49;98024.69;6154631;23;20576;-74
2022/09/15 10:56:29;;;;;;;4.18;2.67;;;;;;;13.39;72.85;98031.88;6154877;23;20033;-73
2022/09/15 10:59:14;;;;;;;4.93;2.53;;;;;;;13.29;72.99;98032.59;6153605;23;20028;-75
2022/09/15 11:02:12;;;;;;;5.03;2.42;;;;;;;13.21;73.36;98036.53;6153537;23;20041;-74
2022/09/15 11:04:41;;;;;;;6.03;3.30;;;;;;;13.21;73.36;98042.09;6154199;23;20022;-72
2022/09/15 11:07:37;;;;;;;6.10;3.38;;;;;;;13.19;73.02;98041.69;6153920;23;20031;-73
2022/09/15 11:10:18;;;;;;;5.35;3.03;;;;;;;13.22;73.07;98035.31;6155348;23;20026;-74
2022/09/15 11:12:51;;;;;;;5.55;2.90;;;;;;;13.16;73.46;98046.06;6154990;23;20472;-74
2022/09/15 11:15:25;;;;;;;4.75;2.75;;;;;;;13.08;73.40;98043.59;6154734;23;20030;-75
2022/09/15 11:19:01;;;;;;;6.60;3.40;;;;;;;12.99;73.52;98037.50;5075584;27;20626;-67
2022/09/15 11:21:39;;;;;;;5.22;2.83;;;;;;;13.05;73.50;98036.00;5033130;27;20051;-70
2022/09/15 11:24:30;;;;;;;4.07;2.80;;;;;;;13.07;73.37;98042.78;5051525;28;20569;-67
2022/09/15 11:27:17;;;;;;;5.50;2.88;;;;;;;13.14;73.02;98048.41;5064828;27;20049;-73
2022/09/15 11:30:05;;;;;;;4.82;3.17;;;;;;;13.17;73.21;98047.66;5073184;28;20078;-73
2022/09/15 11:32:51;;;;;;;6.35;3.10;;;;;;;13.21;73.09;98053.28;5089566;28;20091;-74
2022/09/15 11:35:38;;;;;;;6.50;3.45;;;;;;;13.26;73.17;98053.72;5089258;28;20052;-75
2022/09/15 11:38:39;;;;;;;6.00;3.42;;;;;;;13.27;72.87;98062.91;5083599;28;20051;-74
2022/09/15 11:41:34;;;;;;;7.18;3.30;;;;;;;13.25;72.88;98065.25;5070783;28;20106;-73
2022/09/15 11:44:13;;;;;;;6.95;3.85;;;;;;;13.22;73.46;98060.44;5081129;28;20445;-72
2022/09/15 11:47:06;;;;;;;6.63;4.00;;;;;;;13.25;72.97;98056.88;5071228;28;20041;-68
2022/09/15 11:49:54;;;;;;;5.82;3.70;;;;;;;13.28;72.85;98061.69;5071681;28;20072;-68
2022/09/15 11:52:33;;;;;;;8.32;4.18;;;;;;;13.29;73.12;98064.09;5074361;28;20052;-67
2022/09/15 11:55:08;;;;;;;8.23;3.58;;;;;;;13.27;73.05;98068.50;5070750;28;20050;-67
2022/09/15 11:57:43;;;;;;;6.82;3.47;;;;;;;13.38;72.56;98059.00;5073336;28;20457;-68